Columbia, Missouri
Current Conditions -  °F | °C
As of 1:54 AM on Thursday 18 Dec 2014 (Local Time) from KCOU Reporting Station
Overcast Overcast  
Wind Chill: -3°   Ceiling: 5500
Heat Index: -1°   Visibility: 10mi
Dew Point: -3°   Wind: 5mph
Humidity: 82%   Direction: 50°NE
Pressure: 30.26"   Gusts: NA
Location:  38.95°N, 92.33°W
Report Text: KCOU 180754Z AUTO 05004KT 10SM OVC055 M01/M03 A3026 RMK AO2 SLP254 T10061033
Loading
Personal Weather Stations






























Interactive Weather Map New forecast layout! Learn more

10-Day Weather Forecast

Advertisements
Track Severe Weather on mobile